createdAt,value
2023-03-12T00:00:14.250Z,3.63
2023-03-12T00:00:36.978Z,3.72
2023-03-12T00:00:59.732Z,3.10
2023-03-12T00:01:23.305Z,3.00
2023-03-12T00:01:46.067Z,4.70
2023-03-12T00:02:08.876Z,4.25
2023-03-12T00:02:31.719Z,3.22
2023-03-12T00:02:54.539Z,3.22
2023-03-12T00:03:17.588Z,4.00
2023-03-12T00:03:40.840Z,2.70
2023-03-12T00:04:03.794Z,3.70
2023-03-12T00:04:26.703Z,2.85
2023-03-12T00:04:52.003Z,2.85
2023-03-12T00:05:14.879Z,2.83
2023-03-12T00:05:37.818Z,3.08
2023-03-12T00:06:09.791Z,3.90
2023-03-12T00:06:33.194Z,2.55
2023-03-12T00:06:56.164Z,3.33
2023-03-12T00:07:18.885Z,2.83
2023-03-12T00:07:41.699Z,4.00
2023-03-12T00:08:05.104Z,3.47
2023-03-12T00:08:27.835Z,2.85
2023-03-12T00:08:50.574Z,2.80
2023-03-12T00:09:13.299Z,2.97
2023-03-12T00:09:37.209Z,3.75
2023-03-12T00:09:59.978Z,3.00
2023-03-12T00:10:22.755Z,3.15
2023-03-12T00:10:45.404Z,4.75
2023-03-12T00:11:10.477Z,2.92
2023-03-12T00:11:33.300Z,3.45
2023-03-12T00:11:56.063Z,3.33
2023-03-12T00:12:18.949Z,3.38
2023-03-12T00:12:41.725Z,3.42
2023-03-12T00:13:06.001Z,2.85
2023-03-12T00:13:28.659Z,2.90
2023-03-12T00:13:52.100Z,3.17
2023-03-12T00:14:14.978Z,3.50
2023-03-12T00:14:37.665Z,2.55
2023-03-12T00:15:00.820Z,3.47
2023-03-12T00:15:23.692Z,3.47
2023-03-12T00:15:46.426Z,3.25
2023-03-12T00:16:10.850Z,3.85
2023-03-12T00:16:33.867Z,3.58
2023-03-12T00:16:56.640Z,3.55
2023-03-12T00:17:19.366Z,4.45
2023-03-12T00:17:42.159Z,3.83
2023-03-12T00:18:07.701Z,2.70
2023-03-12T00:18:30.475Z,3.65
2023-03-12T00:18:54.467Z,3.45
2023-03-12T00:19:17.294Z,3.20
2023-03-12T00:19:40.150Z,3.22
2023-03-12T00:20:03.131Z,3.78
2023-03-12T00:20:26.483Z,3.55
2023-03-12T00:20:54.566Z,3.28
2023-03-12T00:21:17.739Z,3.50
2023-03-12T00:21:40.528Z,3.47
2023-03-12T00:22:05.846Z,3.22
2023-03-12T00:22:28.716Z,2.88
2023-03-12T00:22:51.398Z,3.67
2023-03-12T00:23:14.109Z,5.38
2023-03-12T00:23:39.373Z,4.15
2023-03-12T00:24:02.125Z,2.97
2023-03-12T00:24:24.937Z,2.63
2023-03-12T00:24:50.993Z,4.60
2023-03-12T00:25:15.228Z,3.90
2023-03-12T00:25:37.922Z,3.58
2023-03-12T00:26:01.474Z,3.33
2023-03-12T00:26:24.240Z,3.33
2023-03-12T00:26:48.123Z,3.60
2023-03-12T00:27:10.890Z,4.03
2023-03-12T00:27:33.916Z,4.30
2023-03-12T00:27:56.732Z,3.58
2023-03-12T00:28:23.273Z,3.53
2023-03-12T00:28:45.980Z,3.65
2023-03-12T00:29:08.707Z,3.05
2023-03-12T00:29:31.697Z,2.55
2023-03-12T00:29:54.462Z,2.42
2023-03-12T00:30:17.288Z,3.55
2023-03-12T00:30:40.824Z,3.50
2023-03-12T00:31:03.727Z,3.58
2023-03-12T00:31:27.733Z,4.20
2023-03-12T00:31:51.942Z,3.08
2023-03-12T00:32:14.794Z,3.30
2023-03-12T00:32:37.863Z,4.63
2023-03-12T00:33:00.696Z,3.05
2023-03-12T00:33:23.512Z,3.22
2023-03-12T00:33:49.436Z,3.60
2023-03-12T00:34:12.376Z,2.92
2023-03-12T00:34:35.119Z,3.85
2023-03-12T00:34:57.842Z,3.38
2023-03-12T00:35:20.675Z,3.22
2023-03-12T00:35:43.566Z,2.85
2023-03-12T00:36:08.371Z,3.33
2023-03-12T00:36:32.089Z,3.58
2023-03-12T00:36:54.881Z,3.28
2023-03-12T00:37:17.660Z,3.70
2023-03-12T00:37:40.308Z,2.75
2023-03-12T00:38:03.061Z,3.00
2023-03-12T00:38:25.910Z,4.30
2023-03-12T00:38:48.706Z,3.75
2023-03-12T00:39:13.725Z,4.30
2023-03-12T00:39:37.305Z,3.80
2023-03-12T00:40:01.770Z,4.00
2023-03-12T00:40:24.538Z,2.97
2023-03-12T00:40:47.362Z,2.67
2023-03-12T00:41:11.223Z,2.90
2023-03-12T00:41:34.022Z,3.40
2023-03-12T00:41:59.215Z,3.45
2023-03-12T00:42:22.009Z,3.13
2023-03-12T00:42:44.733Z,3.03
2023-03-12T00:43:07.441Z,3.22
2023-03-12T00:43:31.654Z,4.10
2023-03-12T00:43:54.408Z,3.38
2023-03-12T00:44:20.043Z,3.20
2023-03-12T00:44:44.352Z,2.90
2023-03-12T00:45:08.634Z,3.20
2023-03-12T00:45:31.374Z,3.35
2023-03-12T00:45:57.279Z,2.97
2023-03-12T00:46:20.362Z,3.20
2023-03-12T00:46:43.232Z,3.13
2023-03-12T00:47:06.682Z,3.17
2023-03-12T00:47:29.438Z,4.32
2023-03-12T00:47:54.368Z,2.60
2023-03-12T00:48:17.129Z,3.03
2023-03-12T00:48:39.856Z,4.10
2023-03-12T00:49:02.654Z,3.53
2023-03-12T00:49:25.362Z,3.45
2023-03-12T00:49:48.140Z,2.55
2023-03-12T00:50:11.610Z,3.40
2023-03-12T00:50:36.977Z,3.35
2023-03-12T00:50:59.867Z,2.95
2023-03-12T00:51:22.645Z,2.88
2023-03-12T00:51:45.448Z,3.42
2023-03-12T00:52:08.339Z,3.42
2023-03-12T00:52:31.083Z,3.28
2023-03-12T00:52:53.888Z,3.45
2023-03-12T00:53:16.702Z,2.63
2023-03-12T00:53:39.493Z,3.70
2023-03-12T00:54:02.358Z,2.97
2023-03-12T00:54:25.063Z,2.80
2023-03-12T00:54:47.818Z,2.88
2023-03-12T00:55:10.575Z,3.70
2023-03-12T00:55:33.343Z,3.58
2023-03-12T00:55:56.116Z,4.45
2023-03-12T00:56:18.975Z,4.15
2023-03-12T00:56:41.763Z,3.50
2023-03-12T00:57:04.748Z,2.78
2023-03-12T00:57:27.525Z,3.22
2023-03-12T00:57:50.257Z,3.08
2023-03-12T00:58:15.269Z,3.70
2023-03-12T00:58:39.845Z,3.13
2023-03-12T00:59:02.581Z,3.60
2023-03-12T00:59:27.510Z,3.20
2023-03-12T00:59:52.774Z,3.65
2023-03-12T01:00:16.088Z,2.75
2023-03-12T01:00:38.927Z,4.28
2023-03-12T01:01:01.812Z,3.88
2023-03-12T01:01:27.726Z,3.63
2023-03-12T01:01:50.475Z,4.22
2023-03-12T01:02:15.592Z,4.40
2023-03-12T01:02:38.823Z,4.22
2023-03-12T01:03:03.711Z,4.45
2023-03-12T01:03:26.444Z,2.83
2023-03-12T01:03:49.951Z,2.85
2023-03-12T01:04:12.794Z,3.63
2023-03-12T01:04:35.538Z,3.55
2023-03-12T01:05:00.703Z,3.67
2023-03-12T01:05:23.699Z,3.22
2023-03-12T01:05:49.465Z,4.53
2023-03-12T01:06:12.317Z,4.05
2023-03-12T01:06:35.103Z,3.15
2023-03-12T01:06:57.819Z,3.20
2023-03-12T01:07:23.067Z,3.00
2023-03-12T01:07:45.841Z,2.53
2023-03-12T01:08:08.625Z,3.15
2023-03-12T01:08:34.359Z,3.40
2023-03-12T01:08:57.113Z,3.38
2023-03-12T01:09:19.980Z,4.60
2023-03-12T01:09:42.833Z,3.67
2023-03-12T01:10:09.519Z,4.90
2023-03-12T01:10:32.269Z,3.38
2023-03-12T01:10:57.235Z,3.55
2023-03-12T01:11:20.635Z,3.33
2023-03-12T01:11:43.530Z,3.00
2023-03-12T01:12:09.727Z,3.80
2023-03-12T01:12:32.426Z,3.67
2023-03-12T01:12:57.288Z,3.10
2023-03-12T01:13:23.207Z,3.22
2023-03-12T01:13:53.085Z,3.50
2023-03-12T01:14:15.853Z,4.07
2023-03-12T01:14:41.086Z,4.22
2023-03-12T01:15:04.182Z,4.32
2023-03-12T01:15:29.425Z,3.72
2023-03-12T01:15:52.196Z,3.55
2023-03-12T01:16:15.001Z,3.03
2023-03-12T01:16:37.824Z,3.45
2023-03-12T01:17:02.905Z,3.70
2023-03-12T01:17:25.716Z,3.45
2023-03-12T01:17:48.469Z,3.67
2023-03-12T01:18:13.629Z,4.85
2023-03-12T01:18:38.615Z,3.65
2023-03-12T01:19:02.228Z,3.70
2023-03-12T01:19:27.388Z,3.72
2023-03-12T01:19:50.216Z,3.50
2023-03-12T01:20:15.294Z,3.17
2023-03-12T01:20:38.081Z,3.53
2023-03-12T01:21:03.247Z,4.85
2023-03-12T01:21:25.942Z,3.65
2023-03-12T01:21:48.980Z,3.22
2023-03-12T01:22:13.999Z,3.30
2023-03-12T01:22:37.059Z,2.95
2023-03-12T01:23:02.219Z,3.40
2023-03-12T01:23:24.987Z,3.50
2023-03-12T01:23:47.763Z,2.92
2023-03-12T01:24:10.516Z,3.30
2023-03-12T01:24:33.227Z,3.10
2023-03-12T01:24:58.080Z,3.38
2023-03-12T01:25:20.925Z,4.10
2023-03-12T01:25:43.709Z,4.63
2023-03-12T01:26:09.692Z,3.35
2023-03-12T01:26:32.488Z,2.88
2023-03-12T01:26:55.282Z,2.72
2023-03-12T01:27:20.503Z,3.20
2023-03-12T01:27:45.924Z,4.22
2023-03-12T01:28:08.777Z,3.58
2023-03-12T01:28:33.772Z,3.38
2023-03-12T01:29:01.008Z,3.65
2023-03-12T01:29:23.676Z,3.28
2023-03-12T01:29:46.409Z,3.95
2023-03-12T01:30:13.701Z,3.60
2023-03-12T01:30:36.452Z,3.85
2023-03-12T01:30:59.257Z,3.63
2023-03-12T01:31:24.311Z,3.10
2023-03-12T01:31:49.665Z,4.35
2023-03-12T01:32:12.473Z,3.50
2023-03-12T01:32:35.339Z,3.08
2023-03-12T01:33:00.259Z,3.28
2023-03-12T01:33:23.137Z,3.70
2023-03-12T01:33:49.321Z,3.25
2023-03-12T01:34:12.347Z,3.78
2023-03-12T01:34:35.718Z,3.45
2023-03-12T01:34:58.456Z,3.83
2023-03-12T01:35:21.250Z,3.60
2023-03-12T01:35:47.540Z,3.05
2023-03-12T01:36:17.854Z,3.35
2023-03-12T01:36:40.816Z,3.80
2023-03-12T01:37:05.767Z,3.88
2023-03-12T01:37:31.001Z,3.80
2023-03-12T01:37:55.888Z,3.22
2023-03-12T01:38:20.973Z,3.47
2023-03-12T01:38:43.757Z,3.60
2023-03-12T01:39:09.031Z,3.70
2023-03-12T01:39:31.792Z,3.50
2023-03-12T01:39:57.055Z,3.40
2023-03-12T01:40:20.577Z,3.20
2023-03-12T01:40:46.550Z,4.28
2023-03-12T01:41:09.317Z,5.03
2023-03-12T01:41:33.033Z,3.53
2023-03-12T01:42:00.818Z,3.70
2023-03-12T01:42:23.525Z,4.00
2023-03-12T01:42:55.239Z,4.40
2023-03-12T01:43:27.167Z,3.05
2023-03-12T01:43:52.511Z,3.00
2023-03-12T01:44:16.616Z,3.33
2023-03-12T01:44:55.400Z,4.25
2023-03-12T01:46:00.238Z,3.10
2023-03-12T01:46:27.808Z,4.00
2023-03-12T01:46:50.701Z,3.05
2023-03-12T01:47:15.724Z,3.60
2023-03-12T01:47:38.499Z,3.70
2023-03-12T01:48:01.332Z,3.03
2023-03-12T01:48:24.160Z,3.70
2023-03-12T01:48:50.118Z,3.38
2023-03-12T01:49:14.302Z,3.40
2023-03-12T01:49:39.205Z,3.22
2023-03-12T01:50:04.654Z,2.90
2023-03-12T01:50:27.459Z,3.08
2023-03-12T01:50:50.178Z,4.00
2023-03-12T01:51:14.013Z,3.63
2023-03-12T01:51:41.550Z,3.90
2023-03-12T01:52:05.172Z,3.20
2023-03-12T01:52:29.101Z,3.15
2023-03-12T01:52:54.319Z,4.00
2023-03-12T01:53:17.060Z,3.78
2023-03-12T01:53:42.727Z,4.05
2023-03-12T01:54:07.579Z,4.53
2023-03-12T01:54:32.392Z,2.95
2023-03-12T01:54:57.786Z,3.33
2023-03-12T01:55:20.525Z,3.33
2023-03-12T01:55:43.487Z,4.32
2023-03-12T01:56:09.168Z,3.50
2023-03-12T01:56:33.263Z,3.15
2023-03-12T01:56:56.003Z,3.42
2023-03-12T01:57:21.334Z,3.17
2023-03-12T01:57:47.740Z,3.30
2023-03-12T01:58:12.731Z,4.00
2023-03-12T01:58:36.168Z,4.00
2023-03-12T01:59:02.840Z,3.83
2023-03-12T01:59:29.148Z,4.43
2023-03-12T01:59:53.045Z,3.50
2023-03-12T02:00:20.476Z,3.00
2023-03-12T02:00:43.162Z,3.80
2023-03-12T02:01:06.081Z,3.50
2023-03-12T02:01:31.153Z,3.90
2023-03-12T02:01:54.043Z,3.42
2023-03-12T02:02:16.859Z,3.85
2023-03-12T02:02:43.371Z,3.88
2023-03-12T02:03:07.681Z,2.90
2023-03-12T02:03:32.872Z,3.08
2023-03-12T02:03:55.794Z,3.65
2023-03-12T02:04:19.477Z,4.63
2023-03-12T02:04:44.678Z,3.97
2023-03-12T02:05:09.446Z,3.75
2023-03-12T02:05:33.787Z,3.95
2023-03-12T02:05:58.396Z,3.20
2023-03-12T02:06:27.792Z,3.28
2023-03-12T02:06:52.979Z,3.40
2023-03-12T02:07:16.401Z,3.42
2023-03-12T02:07:39.196Z,3.42
2023-03-12T02:08:04.123Z,4.28
2023-03-12T02:08:26.950Z,4.57
2023-03-12T02:08:49.773Z,3.10
2023-03-12T02:09:14.780Z,3.55
2023-03-12T02:09:42.032Z,3.25
2023-03-12T02:10:05.928Z,4.55
2023-03-12T02:10:30.909Z,5.82
2023-03-12T02:10:53.632Z,4.38
2023-03-12T02:11:18.565Z,3.03
2023-03-12T02:11:41.359Z,2.80
2023-03-12T02:12:06.561Z,2.85
2023-03-12T02:12:29.282Z,3.17
2023-03-12T02:12:52.010Z,3.70
2023-03-12T02:13:16.968Z,2.50
2023-03-12T02:13:39.703Z,3.50
2023-03-12T02:14:02.491Z,3.38
2023-03-12T02:14:28.977Z,3.75
2023-03-12T02:14:51.702Z,3.20
2023-03-12T02:15:16.970Z,5.40
2023-03-12T02:15:39.741Z,4.00
2023-03-12T02:16:02.517Z,3.20
2023-03-12T02:16:25.869Z,3.35
2023-03-12T02:16:53.057Z,5.40
2023-03-12T02:17:16.017Z,4.30
2023-03-12T02:17:40.658Z,4.65
2023-03-12T02:18:03.506Z,3.30
2023-03-12T02:18:26.338Z,3.22
2023-03-12T02:18:52.714Z,3.85
2023-03-12T02:19:20.977Z,4.05
2023-03-12T02:19:47.935Z,4.00
2023-03-12T02:20:16.540Z,3.67
2023-03-12T02:20:42.077Z,5.93
2023-03-12T02:21:08.594Z,4.18
2023-03-12T02:21:33.808Z,3.60
2023-03-12T02:21:56.588Z,3.88
2023-03-12T02:22:22.392Z,3.70
2023-03-12T02:22:48.350Z,4.38
2023-03-12T02:23:12.835Z,3.83
2023-03-12T02:23:38.638Z,3.67
2023-03-12T02:24:04.494Z,3.53
2023-03-12T02:24:31.422Z,3.08
2023-03-12T02:24:56.638Z,3.80
2023-03-12T02:25:28.116Z,4.18
2023-03-12T02:25:55.100Z,3.80
2023-03-12T02:26:17.936Z,3.13
2023-03-12T02:26:42.909Z,4.10
2023-03-12T02:27:05.738Z,4.35
2023-03-12T02:27:30.731Z,4.57
2023-03-12T02:27:53.443Z,3.70
2023-03-12T02:28:18.690Z,3.30
2023-03-12T02:28:44.371Z,3.40
2023-03-12T02:29:07.126Z,4.32
2023-03-12T02:29:32.008Z,3.22
2023-03-12T02:29:54.718Z,3.50
2023-03-12T02:30:17.548Z,4.05
2023-03-12T02:30:42.798Z,4.63
2023-03-12T02:31:07.357Z,4.75
2023-03-12T02:31:34.330Z,3.10
2023-03-12T02:31:57.289Z,3.65
2023-03-12T02:32:23.765Z,3.80
2023-03-12T02:32:46.633Z,3.80
2023-03-12T02:33:10.171Z,4.90
2023-03-12T02:33:35.166Z,5.10
2023-03-12T02:33:58.446Z,3.95
2023-03-12T02:34:24.228Z,3.60
2023-03-12T02:34:48.175Z,3.22
2023-03-12T02:35:13.123Z,3.80
2023-03-12T02:35:35.908Z,3.63
2023-03-12T02:35:58.799Z,3.45
2023-03-12T02:36:24.117Z,4.47
2023-03-12T02:36:48.164Z,4.50
2023-03-12T02:37:10.942Z,3.60
2023-03-12T02:37:33.696Z,4.07
2023-03-12T02:37:56.641Z,3.78
2023-03-12T02:38:41.269Z,4.20
2023-03-12T02:39:04.210Z,3.72
2023-03-12T02:39:29.232Z,3.28
2023-03-12T02:39:55.874Z,3.05
2023-03-12T02:40:21.599Z,4.65
2023-03-12T02:40:46.300Z,3.58
2023-03-12T02:41:18.302Z,3.45
2023-03-12T02:41:42.446Z,3.85
2023-03-12T02:42:05.667Z,3.60
2023-03-12T02:42:30.838Z,3.85
2023-03-12T02:42:53.724Z,4.43
2023-03-12T02:43:16.509Z,4.15
2023-03-12T02:43:40.361Z,4.38
2023-03-12T02:44:05.192Z,5.55
2023-03-12T02:44:31.523Z,5.28
2023-03-12T02:44:54.893Z,5.50
2023-03-12T02:45:19.879Z,5.45
2023-03-12T02:45:42.623Z,4.43
2023-03-12T02:46:07.620Z,3.88
2023-03-12T02:46:30.854Z,4.28
2023-03-12T02:46:57.945Z,4.85
2023-03-12T02:47:20.724Z,5.07
2023-03-12T02:47:45.600Z,4.30
2023-03-12T02:48:11.366Z,5.05
2023-03-12T02:48:34.150Z,4.93
2023-03-12T02:48:59.453Z,4.70
2023-03-12T02:49:22.884Z,4.55
2023-03-12T02:49:46.749Z,5.00
2023-03-12T02:50:13.043Z,5.57
2023-03-12T02:50:35.821Z,5.95
2023-03-12T02:50:58.693Z,5.35
2023-03-12T02:51:21.434Z,5.72
2023-03-12T02:51:46.983Z,4.90
2023-03-12T02:52:10.023Z,4.43
2023-03-12T02:52:36.008Z,4.72
2023-03-12T02:52:58.690Z,6.28
2023-03-12T02:53:21.514Z,6.75
2023-03-12T02:53:46.821Z,5.13
2023-03-12T02:54:09.696Z,6.70
2023-03-12T02:54:34.529Z,6.25
2023-03-12T02:54:57.224Z,5.60
2023-03-12T02:55:20.260Z,6.07
2023-03-12T02:55:42.953Z,5.10
2023-03-12T02:56:10.474Z,6.82
2023-03-12T02:56:33.299Z,5.07
2023-03-12T02:56:56.118Z,5.43
2023-03-12T02:57:21.051Z,6.13
2023-03-12T02:57:44.179Z,6.88
2023-03-12T02:58:06.960Z,5.75
2023-03-12T02:58:32.775Z,4.72
2023-03-12T02:58:55.510Z,5.97
2023-03-12T02:59:20.831Z,6.00
2023-03-12T02:59:45.985Z,6.55
2023-03-12T03:00:12.416Z,5.70
2023-03-12T03:00:35.717Z,5.78
2023-03-12T03:00:58.460Z,6.72
2023-03-12T03:01:23.776Z,7.05
2023-03-12T03:01:53.164Z,6.05
2023-03-12T03:02:16.982Z,6.38
2023-03-12T03:02:42.000Z,5.70
2023-03-12T03:03:04.901Z,5.40
2023-03-12T03:03:30.002Z,5.55
2023-03-12T03:03:55.173Z,5.15
2023-03-12T03:04:17.971Z,5.70
2023-03-12T03:04:40.964Z,4.93
2023-03-12T03:05:03.845Z,5.32
2023-03-12T03:05:26.734Z,5.43
2023-03-12T03:05:51.938Z,7.32
2023-03-12T03:06:14.894Z,6.90
2023-03-12T03:06:40.855Z,5.05
2023-03-12T03:07:06.850Z,5.60
2023-03-12T03:07:29.535Z,4.57
2023-03-12T03:07:55.336Z,4.40
2023-03-12T03:08:18.148Z,5.63
2023-03-12T03:08:40.860Z,5.28
2023-03-12T03:09:06.770Z,6.22
2023-03-12T03:09:29.434Z,5.55
2023-03-12T03:09:52.224Z,4.70
2023-03-12T03:10:15.879Z,6.13
2023-03-12T03:10:40.703Z,5.10
2023-03-12T03:11:03.876Z,5.45
2023-03-12T03:11:28.099Z,5.25
2023-03-12T03:11:50.881Z,4.00
2023-03-12T03:12:15.858Z,4.50
2023-03-12T03:12:38.643Z,5.13
2023-03-12T03:13:04.824Z,4.35
2023-03-12T03:13:27.555Z,4.55
2023-03-12T03:13:52.785Z,4.88
2023-03-12T03:14:15.573Z,5.40
2023-03-12T03:14:38.337Z,5.13
2023-03-12T03:15:01.184Z,5.18
2023-03-12T03:15:24.019Z,4.30
2023-03-12T03:15:46.927Z,5.22
2023-03-12T03:16:09.775Z,5.78
2023-03-12T03:16:34.798Z,5.35
2023-03-12T03:16:57.530Z,5.00
2023-03-12T03:17:23.465Z,4.70
2023-03-12T03:17:50.281Z,4.85
2023-03-12T03:18:12.956Z,5.18
2023-03-12T03:18:35.824Z,6.20
2023-03-12T03:18:58.563Z,5.90
2023-03-12T03:19:23.577Z,6.25
2023-03-12T03:19:46.385Z,6.20
2023-03-12T03:20:12.359Z,4.82
2023-03-12T03:20:35.119Z,6.20
2023-03-12T03:20:57.896Z,5.28
2023-03-12T03:21:23.796Z,6.45
2023-03-12T03:21:46.781Z,5.93
2023-03-12T03:22:09.536Z,5.22
2023-03-12T03:22:32.332Z,5.78
2023-03-12T03:22:58.082Z,5.53
2023-03-12T03:23:20.905Z,5.35
2023-03-12T03:23:45.843Z,4.60
2023-03-12T03:24:11.331Z,5.28
2023-03-12T03:24:36.353Z,5.53
2023-03-12T03:24:59.766Z,5.63
2023-03-12T03:25:25.555Z,5.90
2023-03-12T03:25:48.328Z,4.25
2023-03-12T03:26:11.128Z,4.82
2023-03-12T03:26:38.801Z,5.03
2023-03-12T03:27:01.568Z,4.22
2023-03-12T03:27:26.829Z,5.30
2023-03-12T03:27:49.608Z,6.60
2023-03-12T03:28:12.320Z,6.30
2023-03-12T03:28:36.050Z,5.47
2023-03-12T03:28:58.752Z,5.65
2023-03-12T03:29:23.916Z,6.05
2023-03-12T03:29:46.708Z,4.00
2023-03-12T03:30:12.124Z,4.70
2023-03-12T03:30:35.871Z,5.47
2023-03-12T03:31:01.920Z,5.60
2023-03-12T03:31:24.869Z,5.38
2023-03-12T03:31:50.200Z,5.47
2023-03-12T03:32:12.965Z,7.78
2023-03-12T03:32:35.876Z,4.70
2023-03-12T03:33:01.054Z,5.10
2023-03-12T03:33:23.916Z,4.72
2023-03-12T03:33:49.039Z,5.35
2023-03-12T03:34:12.690Z,5.43
2023-03-12T03:34:35.518Z,5.68
2023-03-12T03:35:00.560Z,5.45
2023-03-12T03:35:24.426Z,5.18
2023-03-12T03:35:48.640Z,4.20
2023-03-12T03:36:14.057Z,5.65
2023-03-12T03:36:39.021Z,4.53
2023-03-12T03:37:01.815Z,4.97
2023-03-12T03:37:26.995Z,5.15
2023-03-12T03:37:49.717Z,4.28
2023-03-12T03:38:14.890Z,4.60
2023-03-12T03:38:39.910Z,4.47
2023-03-12T03:39:05.178Z,4.53
2023-03-12T03:39:29.172Z,4.50
2023-03-12T03:39:54.440Z,5.22
2023-03-12T03:40:19.868Z,5.13
2023-03-12T03:40:45.084Z,5.35
2023-03-12T03:41:07.845Z,5.85
2023-03-12T03:41:33.092Z,5.43
2023-03-12T03:41:59.479Z,6.68
2023-03-12T03:42:22.291Z,6.15
2023-03-12T03:42:44.988Z,5.00
2023-03-12T03:43:07.820Z,5.05
2023-03-12T03:43:30.683Z,4.40
2023-03-12T03:43:56.755Z,4.85
2023-03-12T03:44:19.457Z,4.40
2023-03-12T03:44:42.344Z,4.63
2023-03-12T03:45:07.821Z,5.28
2023-03-12T03:45:30.566Z,5.00
2023-03-12T03:45:57.616Z,4.65
2023-03-12T03:46:20.461Z,4.68
2023-03-12T03:46:43.352Z,6.95
2023-03-12T03:47:06.460Z,4.50
2023-03-12T03:47:29.250Z,5.72
2023-03-12T03:47:52.530Z,4.45
2023-03-12T03:48:15.388Z,4.28
2023-03-12T03:48:38.219Z,5.72
2023-03-12T03:49:01.015Z,5.00
2023-03-12T03:49:23.792Z,5.82
2023-03-12T03:49:46.654Z,5.18
2023-03-12T03:50:11.533Z,4.57
2023-03-12T03:50:34.334Z,6.05
2023-03-12T03:51:00.439Z,4.63
2023-03-12T03:51:23.140Z,4.85
2023-03-12T03:51:46.064Z,4.43
2023-03-12T03:52:08.808Z,4.25
2023-03-12T03:52:32.214Z,5.07
2023-03-12T03:52:55.064Z,5.07
2023-03-12T03:53:19.580Z,5.50
2023-03-12T03:53:42.370Z,4.43
2023-03-12T03:54:05.194Z,5.50
2023-03-12T03:54:28.374Z,6.00
2023-03-12T03:54:51.215Z,4.75
2023-03-12T03:55:16.083Z,5.85
2023-03-12T03:55:38.869Z,5.85
2023-03-12T03:56:06.578Z,5.47
2023-03-12T03:56:29.458Z,5.70
2023-03-12T03:56:52.280Z,5.55
2023-03-12T03:57:16.580Z,6.00
2023-03-12T03:57:39.401Z,6.85
2023-03-12T03:58:02.194Z,5.57
2023-03-12T03:58:24.999Z,5.28
2023-03-12T03:58:47.977Z,5.22
2023-03-12T03:59:10.799Z,4.80
2023-03-12T03:59:33.489Z,5.30
2023-03-12T03:59:56.468Z,5.07
2023-03-12T04:00:19.970Z,3.65
2023-03-12T04:00:45.035Z,3.67
2023-03-12T04:01:07.774Z,4.18
2023-03-12T04:01:31.628Z,4.20
2023-03-12T04:01:54.454Z,4.05
2023-03-12T04:02:19.359Z,5.15
2023-03-12T04:02:42.139Z,5.20
2023-03-12T04:03:04.952Z,3.63
2023-03-12T04:03:27.782Z,4.88
2023-03-12T04:03:51.360Z,5.60
2023-03-12T04:04:14.088Z,4.10
2023-03-12T04:04:36.895Z,4.55
2023-03-12T04:04:59.703Z,4.30
2023-03-12T04:05:22.472Z,4.10
2023-03-12T04:05:45.687Z,4.47
2023-03-12T04:06:08.553Z,5.07
2023-03-12T04:06:31.495Z,3.78
2023-03-12T04:06:56.463Z,3.38
2023-03-12T04:07:19.205Z,3.85
2023-03-12T04:07:44.129Z,5.05
2023-03-12T04:08:06.895Z,4.50
2023-03-12T04:08:29.730Z,4.55
2023-03-12T04:08:54.942Z,4.53
2023-03-12T04:09:19.845Z,3.65
2023-03-12T04:09:42.620Z,4.63
2023-03-12T04:10:08.615Z,4.30
2023-03-12T04:10:31.511Z,4.50
2023-03-12T04:10:54.656Z,4.43
2023-03-12T04:11:18.691Z,4.00
2023-03-12T04:11:41.575Z,4.60
2023-03-12T04:12:04.638Z,4.50
2023-03-12T04:12:29.958Z,4.57
2023-03-12T04:12:53.017Z,5.28
2023-03-12T04:13:15.843Z,5.38
2023-03-12T04:13:38.724Z,3.75
2023-03-12T04:14:01.497Z,4.10
2023-03-12T04:14:24.270Z,3.65
2023-03-12T04:14:46.994Z,4.03
2023-03-12T04:15:10.243Z,3.88
2023-03-12T04:15:32.982Z,4.43
2023-03-12T04:15:55.740Z,4.70
2023-03-12T04:16:21.718Z,5.05
2023-03-12T04:16:44.634Z,4.05
2023-03-12T04:17:08.663Z,4.53
2023-03-12T04:17:31.436Z,4.78
2023-03-12T04:17:54.306Z,4.00
2023-03-12T04:18:19.481Z,3.63
2023-03-12T04:18:42.251Z,4.47
2023-03-12T04:19:05.156Z,5.20
2023-03-12T04:19:27.874Z,5.78
2023-03-12T04:19:51.869Z,4.30
2023-03-12T04:20:14.611Z,3.22
2023-03-12T04:20:37.303Z,3.53
2023-03-12T04:21:00.022Z,4.32
2023-03-12T04:21:22.757Z,3.93
2023-03-12T04:21:47.953Z,3.33
2023-03-12T04:22:10.679Z,3.75
2023-03-12T04:22:33.598Z,4.03
2023-03-12T04:22:58.533Z,4.32
2023-03-12T04:23:21.353Z,4.72
2023-03-12T04:23:44.172Z,3.80
2023-03-12T04:24:07.753Z,3.95
2023-03-12T04:24:30.582Z,4.65
2023-03-12T04:24:53.478Z,6.45
2023-03-12T04:25:18.463Z,4.85
2023-03-12T04:25:41.286Z,4.25
2023-03-12T04:26:04.337Z,3.92
2023-03-12T04:26:27.161Z,4.28
2023-03-12T04:26:50.065Z,4.88
2023-03-12T04:27:12.848Z,4.07
2023-03-12T04:27:37.129Z,4.20
2023-03-12T04:27:59.979Z,3.90
2023-03-12T04:28:22.610Z,3.55
2023-03-12T04:28:45.289Z,3.30
2023-03-12T04:29:08.105Z,3.53
2023-03-12T04:29:30.807Z,3.85
2023-03-12T04:29:55.834Z,3.78
2023-03-12T04:30:18.777Z,4.45
2023-03-12T04:30:41.478Z,3.90
2023-03-12T04:31:05.624Z,3.78
2023-03-12T04:31:28.536Z,2.95
2023-03-12T04:31:51.307Z,4.75
2023-03-12T04:32:14.182Z,4.82
2023-03-12T04:32:37.049Z,4.13
2023-03-12T04:32:59.947Z,3.08
2023-03-12T04:33:22.682Z,3.42
2023-03-12T04:33:45.364Z,3.35
2023-03-12T04:34:11.453Z,3.40
2023-03-12T04:34:36.010Z,3.70
2023-03-12T04:34:58.757Z,3.15
2023-03-12T04:35:21.616Z,3.22
2023-03-12T04:35:53.051Z,3.42
2023-03-12T04:36:18.438Z,3.55
2023-03-12T04:36:41.282Z,3.40
2023-03-12T04:37:06.677Z,3.78
2023-03-12T04:37:30.217Z,3.38
2023-03-12T04:37:53.013Z,3.55
2023-03-12T04:38:15.783Z,3.72
2023-03-12T04:38:40.857Z,3.47
2023-03-12T04:39:07.428Z,3.65
2023-03-12T04:39:30.229Z,5.53
2023-03-12T04:39:53.039Z,4.50
2023-03-12T04:40:15.843Z,3.40
2023-03-12T04:40:38.611Z,4.03
2023-03-12T04:41:02.535Z,4.53
2023-03-12T04:41:27.876Z,4.25
2023-03-12T04:41:50.624Z,4.32
2023-03-12T04:42:13.445Z,4.07
2023-03-12T04:42:38.014Z,4.13
2023-03-12T04:43:00.719Z,4.38
2023-03-12T04:43:23.426Z,4.40
2023-03-12T04:43:46.183Z,4.70
2023-03-12T04:44:10.927Z,4.03
2023-03-12T04:44:35.615Z,4.32
2023-03-12T04:44:58.360Z,4.05
2023-03-12T04:45:21.257Z,4.20
2023-03-12T04:45:44.009Z,3.50
2023-03-12T04:46:06.885Z,3.97
2023-03-12T04:46:29.831Z,4.88
2023-03-12T04:46:52.675Z,4.70
2023-03-12T04:47:15.435Z,3.60
2023-03-12T04:47:38.196Z,4.20
2023-03-12T04:48:00.972Z,3.80
2023-03-12T04:48:23.798Z,3.63
2023-03-12T04:48:46.567Z,5.05
2023-03-12T04:49:12.483Z,3.75
2023-03-12T04:49:35.225Z,4.22
2023-03-12T04:49:57.978Z,4.05
2023-03-12T04:50:20.914Z,4.90
2023-03-12T04:50:44.707Z,3.60
2023-03-12T04:51:07.459Z,3.58
2023-03-12T04:51:30.509Z,5.07
2023-03-12T04:51:55.685Z,4.60
2023-03-12T04:52:18.754Z,3.95
2023-03-12T04:52:41.479Z,4.93
2023-03-12T04:53:04.240Z,4.50
2023-03-12T04:53:27.152Z,4.03
2023-03-12T04:53:50.028Z,4.15
2023-03-12T04:54:12.909Z,4.85
2023-03-12T04:54:35.685Z,5.05
2023-03-12T04:55:00.930Z,4.70
2023-03-12T04:55:23.690Z,4.50
2023-03-12T04:55:46.436Z,3.80
2023-03-12T04:56:09.261Z,4.70
2023-03-12T04:56:32.109Z,5.03
2023-03-12T04:56:54.828Z,3.95
2023-03-12T04:57:20.736Z,3.83
2023-03-12T04:57:45.073Z,4.68
2023-03-12T04:58:07.862Z,4.65
2023-03-12T04:58:30.565Z,4.20
2023-03-12T04:58:56.475Z,4.10
2023-03-12T04:59:21.764Z,4.13
2023-03-12T04:59:44.539Z,3.80
2023-03-12T05:00:13.401Z,4.72
2023-03-12T05:00:36.256Z,5.45
2023-03-12T05:00:59.053Z,5.75
2023-03-12T05:01:24.567Z,4.90
2023-03-12T05:01:47.330Z,4.18
2023-03-12T05:02:10.090Z,4.45
2023-03-12T05:02:33.557Z,4.57
2023-03-12T05:02:58.892Z,3.92
2023-03-12T05:03:21.841Z,4.13
2023-03-12T05:03:44.658Z,5.10
2023-03-12T05:04:07.581Z,4.53
2023-03-12T05:04:32.564Z,4.25
2023-03-12T05:04:57.506Z,3.83
2023-03-12T05:05:20.506Z,4.75
2023-03-12T05:05:43.287Z,5.22
2023-03-12T05:06:06.289Z,4.63
2023-03-12T05:06:29.137Z,5.13
2023-03-12T05:06:52.061Z,4.45
2023-03-12T05:07:14.917Z,4.10
2023-03-12T05:07:37.725Z,4.22
2023-03-12T05:08:00.627Z,4.55
2023-03-12T05:08:23.340Z,3.97
2023-03-12T05:08:46.675Z,3.95
2023-03-12T05:09:09.435Z,3.72
2023-03-12T05:09:32.224Z,4.57
2023-03-12T05:09:54.956Z,5.13
2023-03-12T05:10:17.833Z,4.15
2023-03-12T05:10:40.581Z,4.38
2023-03-12T05:11:03.744Z,4.00
2023-03-12T05:11:26.526Z,5.07
2023-03-12T05:11:50.280Z,3.30
2023-03-12T05:12:12.971Z,3.70
2023-03-12T05:12:38.257Z,4.65
2023-03-12T05:13:02.517Z,4.13
2023-03-12T05:13:25.288Z,3.38
2023-03-12T05:13:48.156Z,3.70
2023-03-12T05:14:11.732Z,4.30
2023-03-12T05:14:34.506Z,5.68
2023-03-12T05:14:57.227Z,5.63
2023-03-12T05:15:20.207Z,4.32
2023-03-12T05:15:43.089Z,3.97
2023-03-12T05:16:07.540Z,4.10
2023-03-12T05:16:30.370Z,4.22
2023-03-12T05:16:53.285Z,3.65
2023-03-12T05:17:16.026Z,4.03
2023-03-12T05:17:38.744Z,4.90
2023-03-12T05:18:01.458Z,4.53
2023-03-12T05:18:24.266Z,5.47
2023-03-12T05:18:49.336Z,4.20